Time;durP1;ratioP1;P1;durP2;ratioP2;P2;SDS_P1;SDS_P2;PMS_P1;PMS_P2;Temp;Humidity;BMP_temperature;BMP_pressure;BME280_temperature;BME280_humidity;BME280_pressure;Samples;Min_cycle;Max_cycle;Signal;HPM_P1;HPM_P2
2021/06/29 00:08:37;;;;;;;14.98;4.15;;;;;;;19.39;86.28;99870.52;1590942;90;21274;-78
2021/06/29 00:30:03;;;;;;;9.48;4.70;;;;;;;19.36;86.36;99848.81;1735014;82;21348;-77
2021/06/29 00:33:08;;;;;;;9.03;4.00;;;;;;;19.35;86.69;99840.20;1735529;82;21513;-78
2021/06/29 00:36:16;;;;;;;12.70;4.83;;;;;;;19.37;86.65;99844.94;1736368;79;21378;-78
2021/06/29 00:39:22;;;;;;;15.95;5.15;;;;;;;19.32;86.79;99842.06;1817165;79;21236;-78
2021/06/29 00:42:28;;;;;;;8.68;4.33;;;;;;;19.30;86.99;99840.09;1817335;79;21180;-78
2021/06/29 00:45:33;;;;;;;13.28;4.45;;;;;;;19.28;87.03;99839.48;1817224;79;21196;-78
2021/06/29 00:48:39;;;;;;;9.05;4.10;;;;;;;19.26;87.11;99837.50;1817302;79;21307;-77
2021/06/29 00:51:44;;;;;;;15.38;4.75;;;;;;;19.28;87.24;99833.09;1815941;79;21830;-77
2021/06/29 00:54:50;;;;;;;11.22;4.50;;;;;;;19.27;87.28;99833.64;1815722;79;21228;-77
2021/06/29 00:57:55;;;;;;;7.40;4.55;;;;;;;19.24;87.47;99826.34;1817234;79;21302;-78
2021/06/29 01:01:01;;;;;;;13.00;4.65;;;;;;;19.21;87.39;99826.86;1816505;79;21304;-77
2021/06/29 01:04:07;;;;;;;9.70;4.87;;;;;;;19.16;87.57;99833.13;1817174;79;21299;-77
2021/06/29 01:07:14;;;;;;;11.65;5.00;;;;;;;19.16;88.12;99830.36;1817242;79;21323;-77
2021/06/29 01:10:22;;;;;;;17.20;5.00;;;;;;;19.20;88.24;99828.79;1815198;79;21229;-77
2021/06/29 01:13:42;;;;;;;10.60;4.72;;;;;;;19.22;88.17;99837.69;1814390;79;21298;-77
2021/06/29 01:16:47;;;;;;;9.28;4.35;;;;;;;19.24;88.06;99836.89;1814098;79;21196;-78
2021/06/29 01:19:52;;;;;;;13.25;4.50;;;;;;;19.27;88.05;99841.12;1812599;79;21222;-78
2021/06/29 01:23:10;;;;;;;16.27;5.00;;;;;;;19.28;87.94;99844.19;1813578;79;21176;-78
2021/06/29 01:26:26;;;;;;;7.58;4.75;;;;;;;19.30;87.94;99848.95;1812943;79;21331;-78
2021/06/29 01:32:45;;;;;;;8.75;4.55;;;;;;;19.27;87.54;99840.57;1813498;79;21292;-77
2021/06/29 01:35:50;;;;;;;9.33;4.62;;;;;;;19.26;87.36;99846.37;1813421;79;21192;-77
2021/06/29 01:38:55;;;;;;;10.10;4.65;;;;;;;19.22;87.40;99854.88;1813432;79;21252;-77
2021/06/29 01:42:00;;;;;;;18.37;4.90;;;;;;;19.19;87.47;99853.97;1812371;79;21215;-77
2021/06/29 01:45:06;;;;;;;11.88;4.30;;;;;;;19.18;87.51;99861.98;1813556;79;21188;-77
2021/06/29 01:48:18;;;;;;;12.35;4.53;;;;;;;19.12;87.29;99857.72;1813462;79;21291;-77
2021/06/29 01:51:19;;;;;;;9.78;4.50;;;;;;;19.04;87.74;99856.70;1812977;79;21335;-77
2021/06/29 01:54:24;;;;;;;15.28;4.58;;;;;;;19.02;88.38;99858.88;1813599;79;21169;-77
2021/06/29 01:57:30;;;;;;;17.25;4.62;;;;;;;19.02;88.70;99856.66;1812539;79;22682;-77
2021/06/29 02:00:36;;;;;;;19.12;4.62;;;;;;;19.09;88.69;99859.58;1813577;79;21755;-78
2021/06/29 02:03:42;;;;;;;16.42;4.65;;;;;;;19.29;88.80;99855.56;1813492;79;21291;-77
2021/06/29 02:06:49;;;;;;;24.25;4.97;;;;;;;19.57;87.80;99857.54;1813522;79;21350;-78
2021/06/29 02:09:54;;;;;;;23.50;5.60;;;;;;;19.88;86.58;99857.64;1813688;79;21296;-77
2021/06/29 02:13:00;;;;;;;13.85;4.00;;;;;;;20.21;84.78;99867.14;1786298;79;21358;-77
2021/06/29 02:16:07;;;;;;;9.95;3.77;;;;;;;20.54;83.14;99864.96;1770373;81;21914;-77
2021/06/29 02:19:13;;;;;;;17.50;4.60;;;;;;;20.85;81.31;99863.52;1768843;81;21815;-78
2021/06/29 02:22:19;;;;;;;22.00;4.45;;;;;;;21.11;79.83;99870.28;1768945;81;21808;-78
2021/06/29 02:25:25;;;;;;;17.05;4.50;;;;;;;21.31;78.32;99868.36;1768930;81;21331;-77
2021/06/29 02:28:31;;;;;;;12.65;3.72;;;;;;;21.48;77.05;99876.11;1768996;81;21739;-77
2021/06/29 02:31:44;;;;;;;13.53;4.55;;;;;;;21.64;76.09;99871.05;1771358;81;21232;-77
2021/06/29 02:35:09;;;;;;;20.65;4.97;;;;;;;21.86;75.31;99871.56;1770689;81;21830;-78
2021/06/29 02:38:47;;;;;;;22.98;4.95;;;;;;;22.15;74.25;99877.74;1742633;81;21197;-78
2021/06/29 02:42:01;;;;;;;14.98;5.35;;;;;;;22.49;72.97;99883.95;1769238;81;21192;-77
2021/06/29 02:48:41;;;;;;;16.10;4.78;;;;;;;23.10;71.38;99886.37;1654338;86;21193;-78
2021/06/29 02:52:47;;;;;;;;;;;;;;;;;;;;;
2021/06/29 02:55:16;;;;;;;14.70;6.03;;;;;;;23.62;69.58;99880.81;1754838;81;21347;-78
2021/06/29 02:58:47;;;;;;;14.83;5.83;;;;;;;23.82;68.78;99882.03;1770830;81;21862;-78
2021/06/29 03:02:30;;;;;;;12.82;6.00;;;;;;;24.12;68.07;99884.06;1746933;81;21196;-78
2021/06/29 03:09:14;;;;;;;17.92;6.05;;;;;;;24.61;66.59;99883.61;1743524;81;21323;-77
2021/06/29 03:12:40;;;;;;;;;;;;;;;;;;;;;
2021/06/29 03:15:53;;;;;;;15.13;6.30;;;;;;;25.03;65.13;99881.91;1711611;83;21731;-78
2021/06/29 03:19:17;;;;;;;12.03;7.58;;;;;;;25.29;64.63;99881.87;1720452;83;21319;-78
2021/06/29 03:22:42;;;;;;;17.45;8.33;;;;;;;25.47;63.84;99882.66;1720080;83;21240;-78
2021/06/29 03:26:00;;;;;;;17.00;9.45;;;;;;;25.56;63.77;99880.94;1721057;83;21292;-78
2021/06/29 03:29:56;;;;;;;;;;;;;;;;;;;;;
2021/06/29 03:33:21;;;;;;;16.25;8.08;;;;;;;25.58;63.89;99888.48;1635781;83;21775;-78
2021/06/29 03:37:06;;;;;;;15.58;9.30;;;;;;;25.62;63.32;99885.39;1721066;83;21804;-78
2021/06/29 03:40:59;;;;;;;16.87;8.30;;;;;;;25.71;63.04;99886.47;1602888;89;21263;-78
2021/06/29 03:44:15;;;;;;;14.05;7.50;;;;;;;25.93;62.96;99885.30;1650668;87;21370;-78
2021/06/29 03:47:35;;;;;;;15.83;6.62;;;;;;;26.00;63.10;99887.20;1653555;87;21889;-78
2021/06/29 03:50:52;;;;;;;10.25;6.83;;;;;;;26.08;63.06;99889.97;1765363;81;21204;-78
2021/06/29 03:53:59;;;;;;;15.20;6.97;;;;;;;25.99;63.03;99891.97;1772199;81;21774;-78
2021/06/29 03:57:45;;;;;;;;;;;;;;;;;;;;;
2021/06/29 04:00:53;;;;;;;13.62;6.55;;;;;;;25.62;63.66;99888.19;1774731;81;21204;-78
2021/06/29 04:04:27;;;;;;;16.07;6.80;;;;;;;25.42;64.63;99889.67;1772459;81;21847;-78
2021/06/29 04:08:16;;;;;;;10.58;7.03;;;;;;;25.48;65.55;99889.92;1763298;81;21255;-78
2021/06/29 04:22:37;;;;;;;11.40;7.65;;;;;;;25.98;64.13;99885.27;1792658;79;22487;-77
2021/06/29 04:25:53;;;;;;;13.75;7.83;;;;;;;26.03;64.16;99883.84;1802275;79;21374;-78
2021/06/29 04:29:30;;;;;;;11.80;7.85;;;;;;;26.04;64.77;99884.67;1802038;79;21324;-78
2021/06/29 04:32:41;;;;;;;17.92;7.75;;;;;;;26.09;64.76;99886.04;1792183;79;21212;-78
2021/06/29 04:35:54;;;;;;;16.05;8.28;;;;;;;26.14;64.31;99888.24;1803455;79;21299;-78
2021/06/29 04:51:30;;;;;;;9.48;6.83;;;;;;;26.82;60.20;99897.33;1789844;79;21140;-77
2021/06/29 04:54:58;;;;;;;9.25;6.78;;;;;;;26.97;60.40;99908.41;1797204;79;21224;-79
2021/06/29 04:58:16;;;;;;;10.32;6.22;;;;;;;26.99;58.79;99915.11;1801223;79;21303;-78
2021/06/29 05:01:20;;;;;;;10.30;6.10;;;;;;;26.95;58.01;99909.81;1799613;79;21292;-79
2021/06/29 05:04:26;;;;;;;7.60;5.85;;;;;;;26.83;57.93;99911.62;1799308;79;21835;-78
2021/06/29 05:07:32;;;;;;;7.72;5.83;;;;;;;26.78;57.06;99915.88;1769987;79;21913;-77
2021/06/29 05:10:38;;;;;;;7.67;5.97;;;;;;;26.71;57.41;99916.19;1729048;83;21160;-78
2021/06/29 05:13:43;;;;;;;9.78;5.70;;;;;;;26.64;57.50;99924.11;1800959;79;21347;-79
2021/06/29 05:16:48;;;;;;;7.35;5.30;;;;;;;26.43;58.08;99937.42;1800058;79;21197;-79
2021/06/29 05:19:54;;;;;;;8.50;6.65;;;;;;;26.33;58.54;99929.62;1790399;79;21276;-79
2021/06/29 05:22:59;;;;;;;8.63;6.45;;;;;;;26.42;58.79;99929.28;1778013;79;22473;-79
2021/06/29 05:26:05;;;;;;;7.70;6.17;;;;;;;26.65;59.38;99927.19;1799753;79;21303;-78
2021/06/29 05:29:11;;;;;;;8.40;6.87;;;;;;;26.84;57.87;99931.52;1800515;79;21165;-78
2021/06/29 05:32:16;;;;;;;10.20;6.70;;;;;;;27.07;57.45;99927.11;1800840;79;21850;-78
2021/06/29 05:35:25;;;;;;;9.05;6.97;;;;;;;27.25;57.21;99926.98;1798473;79;21296;-78
2021/06/29 05:38:30;;;;;;;8.45;6.70;;;;;;;27.43;56.69;99929.58;1794331;79;21260;-77
2021/06/29 05:41:37;;;;;;;12.23;7.37;;;;;;;27.60;56.98;99929.95;1791623;80;21169;-78
2021/06/29 05:44:42;;;;;;;9.55;7.75;;;;;;;27.74;57.23;99926.73;1798982;79;21558;-77
2021/06/29 05:47:48;;;;;;;11.93;6.70;;;;;;;27.97;56.68;99919.98;1800932;79;21578;-78
2021/06/29 05:50:53;;;;;;;9.35;5.50;;;;;;;28.12;55.34;99923.99;1783824;80;21193;-77
2021/06/29 05:53:59;;;;;;;9.15;4.62;;;;;;;28.16;54.10;99919.44;1725197;83;21352;-78
2021/06/29 05:57:04;;;;;;;5.85;4.45;;;;;;;28.21;53.72;99919.36;1798690;79;21159;-78
2021/06/29 06:00:13;;;;;;;16.55;4.60;;;;;;;28.33;52.87;99918.09;1801960;79;21335;-78
2021/06/29 06:03:18;;;;;;;6.30;3.85;;;;;;;28.44;51.57;99925.27;1802077;79;21310;-78
2021/06/29 06:06:23;;;;;;;5.67;4.47;;;;;;;28.48;51.78;99924.35;1770205;79;21173;-78
2021/06/29 06:09:28;;;;;;;6.12;3.77;;;;;;;28.53;51.97;99929.06;1706371;83;21263;-78
2021/06/29 06:12:33;;;;;;;7.67;3.55;;;;;;;28.73;51.29;99923.68;1782604;79;21623;-78
2021/06/29 06:15:40;;;;;;;5.45;3.50;;;;;;;28.88;49.17;99924.83;1786244;79;21347;-78
2021/06/29 06:18:46;;;;;;;5.72;3.25;;;;;;;28.91;49.47;99919.16;1799809;79;21232;-78
2021/06/29 06:21:51;;;;;;;4.03;3.27;;;;;;;28.94;49.82;99919.39;1784448;79;21272;-78
2021/06/29 06:24:58;;;;;;;7.87;3.60;;;;;;;28.83;48.99;99910.84;1731596;82;21814;-77
2021/06/29 06:28:04;;;;;;;8.35;3.52;;;;;;;28.83;48.99;99910.84;1790079;79;21181;-76
2021/06/29 06:31:09;;;;;;;3.40;2.90;;;;;;;28.83;49.14;99906.62;1788636;79;21272;-77
2021/06/29 06:34:17;;;;;;;4.70;2.77;;;;;;;28.89;48.47;99907.36;1767402;79;21288;-78
2021/06/29 06:37:23;;;;;;;5.33;2.85;;;;;;;29.08;49.26;99906.80;1776399;79;21307;-79
2021/06/29 06:40:29;;;;;;;3.75;2.92;;;;;;;29.09;48.91;99904.23;1763259;79;21292;-78
2021/06/29 06:43:34;;;;;;;4.40;2.80;;;;;;;28.94;48.80;99905.31;1786055;79;21350;-79
2021/06/29 06:46:39;;;;;;;3.58;2.80;;;;;;;28.54;51.69;99898.38;1781770;79;21284;-78
2021/06/29 06:49:45;;;;;;;6.58;3.20;;;;;;;28.54;51.69;99898.38;1792130;79;21173;-78
2021/06/29 06:52:51;;;;;;;5.05;2.77;;;;;;;28.36;51.93;99897.24;1787472;79;21492;-78
2021/06/29 06:55:56;;;;;;;4.37;2.67;;;;;;;28.17;50.83;99900.02;1749992;81;21256;-79
2021/06/29 06:59:01;;;;;;;7.42;2.92;;;;;;;28.17;50.83;99900.02;1780310;79;21213;-79
2021/06/29 07:02:07;;;;;;;11.80;2.80;;;;;;;27.93;51.19;99904.29;1785728;79;21318;-79
2021/06/29 07:05:16;;;;;;;4.45;2.87;;;;;;;27.75;52.80;99901.70;1791478;79;21181;-79
2021/06/29 07:08:21;;;;;;;4.78;3.40;;;;;;;27.52;55.68;99899.70;1777384;79;21743;-78
2021/06/29 07:11:26;;;;;;;5.60;3.27;;;;;;;27.34;55.99;99902.73;1782277;79;22048;-78
2021/06/29 07:14:31;;;;;;;4.37;3.10;;;;;;;27.34;55.99;99902.73;1783448;79;21288;-78
2021/06/29 07:17:37;;;;;;;7.03;2.90;;;;;;;27.20;56.42;99905.41;1749030;81;21315;-78
2021/06/29 07:20:42;;;;;;;5.58;3.42;;;;;;;27.04;57.12;99912.83;1719650;82;21276;-78
2021/06/29 07:23:49;;;;;;;5.72;2.95;;;;;;;26.93;58.20;99910.13;1749993;82;21237;-78
2021/06/29 07:26:56;;;;;;;4.80;2.67;;;;;;;27.06;59.54;99911.41;1731318;82;21216;-78
2021/06/29 07:30:02;;;;;;;5.67;2.92;;;;;;;27.42;59.55;99901.23;1801264;79;21621;-79
2021/06/29 07:33:08;;;;;;;4.08;2.72;;;;;;;27.80;56.03;99897.99;1794039;79;21894;-79
2021/06/29 07:36:14;;;;;;;4.85;2.72;;;;;;;28.08;53.25;99899.02;1756982;81;21296;-78
2021/06/29 07:39:19;;;;;;;7.10;3.35;;;;;;;28.23;52.22;99893.75;1790232;79;21340;-78
2021/06/29 07:42:25;;;;;;;4.42;2.45;;;;;;;28.49;51.46;99895.64;1746658;81;21225;-78
2021/06/29 07:45:31;;;;;;;3.70;2.52;;;;;;;28.76;50.20;99895.77;1784425;79;21523;-78
2021/06/29 07:48:36;;;;;;;7.17;2.83;;;;;;;29.02;53.15;99888.30;1740666;81;21364;-77
2021/06/29 07:51:45;;;;;;;6.55;2.75;;;;;;;29.29;52.94;99878.50;1771838;79;21283;-78
2021/06/29 07:54:51;;;;;;;9.73;2.92;;;;;;;29.57;51.52;99881.38;1767879;79;21822;-79
2021/06/29 07:57:56;;;;;;;9.20;2.90;;;;;;;29.26;51.20;99885.32;1768266;79;21323;-78
2021/06/29 08:01:01;;;;;;;3.45;2.77;;;;;;;29.26;51.20;99885.32;1774338;79;21834;-78
2021/06/29 08:04:08;;;;;;;4.10;2.30;;;;;;;28.99;51.31;99894.00;1715305;83;21886;-79
2021/06/29 08:07:13;;;;;;;9.88;2.58;;;;;;;28.76;52.13;99892.95;1773476;79;21177;-79
2021/06/29 08:10:19;;;;;;;2.47;2.27;;;;;;;28.59;51.25;99893.23;1776592;79;22806;-78
2021/06/29 08:13:24;;;;;;;3.67;2.55;;;;;;;28.46;51.05;99897.66;1773574;79;21284;-78
2021/06/29 08:16:32;;;;;;;6.62;2.15;;;;;;;28.46;51.05;99897.66;1776139;79;21197;-78
2021/06/29 08:19:37;;;;;;;2.75;2.05;;;;;;;28.57;52.14;99897.78;1775518;79;21527;-79
2021/06/29 08:22:45;;;;;;;3.52;2.50;;;;;;;28.59;51.80;99900.27;1774399;79;21232;-78
2021/06/29 08:25:53;;;;;;;6.35;2.20;;;;;;;28.59;51.80;99900.27;1785021;79;21725;-78
2021/06/29 08:28:59;;;;;;;7.05;2.58;;;;;;;29.06;53.39;99902.03;1782457;79;21819;-78
2021/06/29 08:32:06;;;;;;;5.95;2.27;;;;;;;29.42;51.06;99896.57;1781005;79;21335;-78
2021/06/29 08:35:16;;;;;;;3.83;2.52;;;;;;;29.42;51.06;99896.57;1745108;81;21566;-78
2021/06/29 08:38:21;;;;;;;5.22;2.58;;;;;;;29.60;48.68;99894.02;1792605;79;21303;-78
2021/06/29 08:41:24;;;;;;;8.98;2.47;;;;;;;29.53;48.35;99895.79;1786422;79;21170;-78
2021/06/29 08:44:33;;;;;;;8.43;2.47;;;;;;;29.52;51.24;99895.53;1741203;81;21871;-78
2021/06/29 08:47:42;;;;;;;6.67;2.70;;;;;;;29.66;52.58;99903.45;1789286;79;21284;-78
2021/06/29 08:50:48;;;;;;;;;;;;;;;29.70;52.51;99896.04;1782452;80;21339;-79
2021/06/29 08:53:54;;;;;;;13.15;3.17;;;;;;;29.49;52.69;99898.97;1787263;79;20273;-78
2021/06/29 08:57:02;;;;;;;9.43;3.05;;;;;;;29.08;54.94;99899.76;1793048;79;21162;-77
2021/06/29 09:00:09;;;;;;;7.25;3.00;;;;;;;28.63;56.37;99887.27;1747583;80;21348;-78
2021/06/29 09:03:19;;;;;;;6.40;2.62;;;;;;;28.13;57.36;99891.09;1726593;82;21268;-78
2021/06/29 09:06:43;;;;;;;5.30;2.52;;;;;;;27.68;59.74;99888.57;1781232;79;21268;-78
2021/06/29 09:09:56;;;;;;;6.80;2.70;;;;;;;27.13;62.45;99896.48;1783519;79;21798;-77
2021/06/29 09:13:01;;;;;;;4.28;2.85;;;;;;;27.13;62.45;99896.48;1789496;79;21287;-77
2021/06/29 09:16:10;;;;;;;4.42;2.42;;;;;;;27.11;66.09;99894.55;1746352;81;21292;-77
2021/06/29 09:19:15;;;;;;;4.40;2.02;;;;;;;27.11;66.09;99894.55;1739242;81;21182;-77
2021/06/29 09:22:39;;;;;;;4.53;1.80;;;;;;;27.39;61.94;99892.02;1724431;82;21287;-79
2021/06/29 09:25:47;;;;;;;4.33;2.83;;;;;;;27.71;58.26;99892.23;1787048;79;21306;-78
2021/06/29 09:28:56;;;;;;;3.72;1.92;;;;;;;28.13;58.46;99877.86;1730364;82;21331;-79
2021/06/29 09:32:02;;;;;;;5.50;2.70;;;;;;;28.36;56.52;99869.69;1739700;81;21276;-79
2021/06/29 09:35:13;;;;;;;8.48;2.77;;;;;;;28.45;54.75;99870.09;1761188;81;21335;-80
2021/06/29 09:38:22;;;;;;;8.30;2.42;;;;;;;28.57;54.83;99871.05;1747087;81;21134;-77
2021/06/29 09:41:30;;;;;;;6.62;2.47;;;;;;;28.63;54.57;99876.02;1714689;82;21854;-78
2021/06/29 09:44:40;;;;;;;4.33;2.87;;;;;;;28.55;55.29;99876.70;1752666;81;21245;-79
2021/06/29 09:47:55;;;;;;;4.83;2.65;;;;;;;28.41;55.37;99871.02;1728165;82;21307;-79
2021/06/29 09:51:05;;;;;;;6.55;3.40;;;;;;;28.44;54.17;99847.34;1724416;82;21319;-78
2021/06/29 09:54:13;;;;;;;4.03;2.72;;;;;;;28.44;54.17;99847.34;1747298;81;21611;-78
2021/06/29 09:57:33;;;;;;;4.30;2.55;;;;;;;28.46;54.32;99845.62;1750280;81;21707;-78
2021/06/29 10:01:01;;;;;;;4.45;2.62;;;;;;;28.42;54.71;99850.18;1721167;82;21234;-79
2021/06/29 10:04:11;;;;;;;2.72;2.52;;;;;;;28.33;54.32;99844.98;1725916;82;21365;-77
2021/06/29 10:07:22;;;;;;;3.77;2.45;;;;;;;28.00;52.25;99868.80;1701223;83;21182;-77
2021/06/29 10:10:30;;;;;;;3.85;2.40;;;;;;;28.00;52.25;99868.80;1696282;82;21217;-77
2021/06/29 10:13:35;;;;;;;2.80;2.25;;;;;;;27.75;52.18;99871.37;1720424;82;21309;-78
2021/06/29 10:16:46;;;;;;;12.98;2.37;;;;;;;27.40;53.73;99874.03;1702845;83;21396;-78
2021/06/29 10:20:59;;;;;;;8.28;2.37;;;;;;;26.97;53.34;99890.73;1744462;81;21383;-77
2021/06/29 10:23:11;;;;;;;5.08;2.35;;;;;;;26.34;54.63;99873.81;1734112;81;21240;-77
2021/06/29 10:26:17;;;;;;;4.10;2.02;;;;;;;25.68;55.83;99868.83;1749463;81;21249;-77
2021/06/29 10:29:24;;;;;;;6.17;1.90;;;;;;;25.05;57.68;99864.26;1721939;82;21787;-78
2021/06/29 10:32:31;;;;;;;4.65;1.65;;;;;;;24.58;58.61;99861.79;1783297;80;21327;-79
2021/06/29 10:35:36;;;;;;;8.25;2.05;;;;;;;24.13;60.32;99861.42;1734137;82;22201;-78
2021/06/29 10:38:42;;;;;;;6.25;2.08;;;;;;;23.92;61.59;99866.70;1762584;80;21189;-78
2021/06/29 10:41:58;;;;;;;2.25;2.05;;;;;;;23.95;62.96;99865.59;1728271;83;21207;-79
2021/06/29 10:45:03;;;;;;;3.05;2.05;;;;;;;24.18;62.59;99871.23;1770967;80;21749;-77
2021/06/29 10:48:26;;;;;;;3.80;1.77;;;;;;;24.29;62.16;99875.44;1782044;80;21798;-78
2021/06/29 10:51:45;;;;;;;5.47;2.08;;;;;;;24.30;62.72;99875.16;1727185;83;21177;-78
2021/06/29 10:54:57;;;;;;;5.05;2.50;;;;;;;24.33;63.11;99885.78;1791209;80;21283;-78
2021/06/29 10:58:05;;;;;;;2.47;2.25;;;;;;;24.52;63.67;99880.52;1786368;79;21794;-78
2021/06/29 11:01:37;;;;;;;2.72;2.00;;;;;;;24.46;60.17;99871.27;1763995;79;21282;-78
2021/06/29 11:05:02;;;;;;;2.22;1.65;;;;;;;24.37;60.44;99865.12;1725307;83;21739;-77
2021/06/29 11:08:23;;;;;;;4.22;2.37;;;;;;;24.51;60.14;99859.25;1768384;79;21760;-78
2021/06/29 11:11:26;;;;;;;4.50;1.90;;;;;;;24.84;60.69;99859.27;1763271;80;21339;-78
2021/06/29 11:14:36;;;;;;;3.90;1.80;;;;;;;25.15;60.28;99848.87;1704431;83;21934;-78
2021/06/29 11:18:03;;;;;;;5.58;2.60;;;;;;;25.45;59.70;99845.69;1767102;80;21190;-78
2021/06/29 11:21:13;;;;;;;2.90;1.70;;;;;;;25.68;57.78;99848.39;1774267;80;21871;-77
2021/06/29 11:24:47;;;;;;;6.60;1.80;;;;;;;25.82;56.04;99852.84;1758941;80;21299;-77
2021/06/29 11:28:17;;;;;;;5.97;1.75;;;;;;;25.74;50.01;99851.47;1756193;80;21713;-78
2021/06/29 11:31:35;;;;;;;4.08;1.50;;;;;;;25.59;48.49;99853.75;1769181;79;21344;-79
2021/06/29 11:34:42;;;;;;;3.37;1.80;;;;;;;25.67;52.54;99844.77;1780386;79;22754;-78
2021/06/29 11:38:17;;;;;;;2.27;1.72;;;;;;;25.88;51.11;99847.50;1774187;79;21165;-78
2021/06/29 11:41:44;;;;;;;3.52;1.95;;;;;;;26.05;51.63;99839.53;1732153;83;21287;-78
2021/06/29 11:44:56;;;;;;;1.92;1.72;;;;;;;26.18;50.56;99844.50;1724265;82;21604;-78
2021/06/29 11:48:03;;;;;;;7.62;1.90;;;;;;;26.25;51.14;99846.96;1722638;82;21258;-78
2021/06/29 11:51:13;;;;;;;3.17;2.08;;;;;;;26.29;50.63;99843.02;1778718;79;21287;-78
2021/06/29 11:54:18;;;;;;;6.17;2.40;;;;;;;26.47;50.86;99833.94;1764424;79;21220;-78
2021/06/29 11:57:45;;;;;;;3.95;2.02;;;;;;;26.73;51.36;99841.01;1799103;79;22249;-78
2021/06/29 12:00:51;;;;;;;2.30;1.72;;;;;;;26.95;50.21;99846.67;1792445;79;21306;-79
2021/06/29 12:03:56;;;;;;;3.65;2.08;;;;;;;27.11;48.92;99850.21;1798281;79;21307;-78
2021/06/29 12:07:12;;;;;;;10.08;2.17;;;;;;;27.21;49.19;99852.33;1780532;79;21193;-78
2021/06/29 12:10:30;;;;;;;3.00;2.12;;;;;;;27.32;48.70;99853.62;1798652;79;21288;-78
2021/06/29 12:13:39;;;;;;;3.62;2.10;;;;;;;27.43;48.01;99859.38;1784219;79;21938;-78
2021/06/29 12:16:44;;;;;;;4.50;1.52;;;;;;;27.63;49.25;99863.36;1771443;79;21223;-80
2021/06/29 12:20:09;;;;;;;3.85;1.47;;;;;;;27.71;46.52;99862.73;1795647;79;21268;-77
2021/06/29 12:23:16;;;;;;;1.98;1.20;;;;;;;27.44;45.26;99858.26;1785476;79;21842;-77
2021/06/29 12:26:24;;;;;;;2.15;1.22;;;;;;;27.13;46.73;99851.57;1793914;79;21846;-77
2021/06/29 12:29:40;;;;;;;2.37;1.30;;;;;;;26.82;44.04;99854.38;1745259;81;21281;-77
2021/06/29 12:32:47;;;;;;;4.87;1.70;;;;;;;26.57;45.89;99849.27;1766606;80;21232;-78
2021/06/29 12:36:02;;;;;;;3.47;1.57;;;;;;;26.23;48.45;99844.45;1734379;82;21251;-78
2021/06/29 12:39:11;;;;;;;1.62;1.50;;;;;;;25.92;46.68;99844.38;1719813;83;21324;-78
2021/06/29 12:42:21;;;;;;;1.67;1.32;;;;;;;25.67;46.75;99843.36;1729171;82;21719;-77
2021/06/29 12:45:28;;;;;;;;;;;;;;;25.60;47.02;99837.25;1731093;81;21312;-78
2021/06/29 12:48:35;;;;;;;5.25;1.92;;;;;;;25.66;47.30;99834.69;1754031;81;20263;-77
2021/06/29 12:51:48;;;;;;;2.80;1.75;;;;;;;25.72;47.94;99823.72;1786426;79;21270;-78
2021/06/29 12:54:54;;;;;;;4.45;1.70;;;;;;;25.80;48.20;99815.89;1785871;79;21637;-77
2021/06/29 12:58:17;;;;;;;3.42;1.80;;;;;;;25.79;48.91;99810.86;1797145;79;21133;-77
2021/06/29 13:01:24;;;;;;;6.50;1.92;;;;;;;25.72;46.60;99809.72;1770697;81;21335;-78
2021/06/29 13:04:30;;;;;;;8.63;1.95;;;;;;;25.71;44.47;99801.62;1779849;79;21149;-77
2021/06/29 13:07:43;;;;;;;2.40;1.70;;;;;;;25.72;44.87;99799.92;1772304;79;21831;-77
2021/06/29 13:10:54;;;;;;;9.55;1.60;;;;;;;25.72;44.97;99804.12;1786405;79;21326;-77
2021/06/29 13:14:09;;;;;;;5.55;1.45;;;;;;;25.71;45.45;99796.84;1798724;79;21158;-77
2021/06/29 13:17:17;;;;;;;3.33;1.57;;;;;;;25.67;46.33;99799.11;1800434;79;21166;-78
2021/06/29 13:20:27;;;;;;;2.33;1.55;;;;;;;25.70;49.03;99797.15;1802760;79;21324;-77
2021/06/29 13:23:35;;;;;;;5.00;1.50;;;;;;;25.79;49.16;99796.02;1803173;79;21429;-77
2021/06/29 13:26:47;;;;;;;4.35;1.52;;;;;;;25.87;50.26;99782.77;1801268;79;21161;-77
2021/06/29 13:29:55;;;;;;;2.70;1.80;;;;;;;25.90;47.39;99783.61;1759519;79;21273;-77
2021/06/29 13:33:02;;;;;;;3.02;1.80;;;;;;;25.87;49.27;99786.98;1779390;79;21392;-78
2021/06/29 13:36:07;;;;;;;5.28;1.67;;;;;;;25.70;48.63;99781.18;1766134;81;21874;-77
2021/06/29 13:39:14;;;;;;;5.00;2.00;;;;;;;25.58;50.32;99775.08;1766961;81;21289;-77
2021/06/29 13:42:31;;;;;;;2.50;1.80;;;;;;;25.55;51.84;99762.20;1764645;81;21182;-78
2021/06/29 13:45:47;;;;;;;5.40;2.08;;;;;;;25.60;51.21;99757.44;1764293;80;21728;-78
2021/06/29 13:48:57;;;;;;;2.65;1.70;;;;;;;25.71;48.94;99755.41;1766046;81;21143;-77
2021/06/29 13:52:17;;;;;;;3.20;2.10;;;;;;;25.81;50.02;99751.73;1766389;81;21296;-77
2021/06/29 13:55:24;;;;;;;;;;;;;;;25.87;50.09;99752.80;1766541;81;21198;-77
2021/06/29 13:58:31;;;;;;;3.12;1.90;;;;;;;25.97;50.71;99750.48;1765860;81;20300;-77
2021/06/29 14:01:38;;;;;;;10.40;2.08;;;;;;;26.04;51.42;99744.56;1760279;81;21163;-77
2021/06/29 14:05:02;;;;;;;2.75;1.90;;;;;;;26.11;51.79;99747.85;1765640;81;21316;-77
2021/06/29 14:08:28;;;;;;;2.75;1.90;;;;;;;26.16;52.04;99743.61;1764293;81;21236;-77
2021/06/29 14:11:33;;;;;;;5.12;2.33;;;;;;;26.25;52.12;99733.44;1764067;81;21349;-77
2021/06/29 14:14:42;;;;;;;4.10;2.30;;;;;;;26.29;49.44;99723.88;1765169;81;21190;-77
2021/06/29 14:17:46;;;;;;;3.42;2.37;;;;;;;26.32;49.16;99723.30;1764442;81;21183;-77
2021/06/29 14:20:52;;;;;;;4.83;2.52;;;;;;;26.34;49.96;99725.23;1763812;81;21222;-77
2021/06/29 14:24:00;;;;;;;5.12;2.95;;;;;;;26.39;50.39;99740.60;1764069;81;21301;-77
2021/06/29 14:27:06;;;;;;;5.35;3.17;;;;;;;26.44;49.02;99740.58;1758558;81;21190;-78
2021/06/29 14:30:16;;;;;;;7.45;3.17;;;;;;;26.60;50.90;99743.52;1765960;81;21841;-77
2021/06/29 14:33:25;;;;;;;6.08;3.33;;;;;;;26.73;49.36;99751.24;1767336;80;21217;-77
2021/06/29 14:36:37;;;;;;;6.37;3.17;;;;;;;26.82;49.20;99751.97;1765530;81;21297;-77
2021/06/29 14:39:40;;;;;;;6.00;3.27;;;;;;;26.83;49.92;99748.06;1764332;81;21211;-77
2021/06/29 14:42:47;;;;;;;5.15;3.40;;;;;;;26.79;49.53;99749.21;1765598;81;21753;-78
2021/06/29 14:45:54;;;;;;;6.87;2.80;;;;;;;26.70;48.85;99756.03;1765145;81;21312;-78
2021/06/29 14:49:00;;;;;;;7.65;3.00;;;;;;;26.62;48.79;99761.45;1765505;81;21335;-78
2021/06/29 14:52:11;;;;;;;11.80;3.00;;;;;;;26.48;49.38;99760.73;1765245;81;21308;-77
2021/06/29 14:55:15;;;;;;;6.72;2.17;;;;;;;26.34;53.51;99796.72;1765262;81;21582;-77
2021/06/29 14:58:25;;;;;;;3.42;2.10;;;;;;;25.92;53.78;99779.94;1765383;80;21297;-77
2021/06/29 15:01:30;;;;;;;3.55;1.92;;;;;;;25.41;54.54;99789.46;1763554;81;21213;-77
2021/06/29 15:04:35;;;;;;;5.80;2.20;;;;;;;24.94;54.57;99793.52;1763862;81;21328;-77
2021/06/29 15:07:44;;;;;;;5.35;2.15;;;;;;;24.70;55.70;99796.08;1777200;80;21309;-78
2021/06/29 15:10:52;;;;;;;9.88;2.10;;;;;;;24.57;56.33;99788.83;1765867;81;21312;-77
2021/06/29 15:14:00;;;;;;;2.00;1.32;;;;;;;24.51;56.54;99787.97;1764568;81;21274;-77
2021/06/29 15:17:13;;;;;;;14.95;1.57;;;;;;;24.46;56.82;99784.62;1765757;81;21321;-77
2021/06/29 15:20:22;;;;;;;2.85;1.30;;;;;;;24.39;54.64;99784.64;1766968;81;21142;-77
2021/06/29 15:23:28;;;;;;;2.10;1.25;;;;;;;24.36;55.67;99788.82;1759808;81;21293;-77
2021/06/29 15:26:35;;;;;;;1.42;1.15;;;;;;;24.33;56.95;99787.14;1764681;81;21197;-77
2021/06/29 15:29:41;;;;;;;1.87;1.50;;;;;;;24.30;56.76;99782.09;1765474;81;21329;-77
2021/06/29 15:32:46;;;;;;;2.00;1.40;;;;;;;24.26;56.60;99785.16;1764735;81;21181;-77
2021/06/29 15:35:53;;;;;;;3.62;1.65;;;;;;;24.17;57.72;99789.07;1774505;79;21217;-77
2021/06/29 15:39:02;;;;;;;4.40;1.72;;;;;;;24.06;58.35;99777.63;1802662;79;21280;-77
2021/06/29 15:42:10;;;;;;;3.00;1.60;;;;;;;23.99;58.82;99770.89;1797080;79;21259;-77
2021/06/29 15:45:17;;;;;;;4.25;1.77;;;;;;;24.03;60.03;99771.19;1802443;79;21343;-77
2021/06/29 15:48:25;;;;;;;2.47;1.65;;;;;;;24.03;60.19;99760.84;1801734;79;21192;-77
2021/06/29 15:51:33;;;;;;;2.55;1.67;;;;;;;24.05;59.67;99763.38;1803309;79;21166;-77
2021/06/29 15:54:41;;;;;;;4.70;1.60;;;;;;;24.06;60.22;99765.05;1802981;79;21831;-77
2021/06/29 15:57:49;;;;;;;4.47;1.77;;;;;;;24.08;60.09;99755.25;1800901;79;21842;-77
2021/06/29 16:00:58;;;;;;;2.52;1.80;;;;;;;24.14;59.49;99757.52;1801702;79;21351;-77